METAR Data
IDs: Format: Raw Decoded Include TAF

Data at: 1441 UTC 10 Aug 2022

KACV 101353Z AUTO 00000KT 10SM CLR 12/11 A3006 RMK AO2 SLP182 T01170106
KACV 101253Z AUTO 08003KT 10SM CLR 11/10 A3003 RMK AO2 SLP174 T01110100
KACV 101153Z AUTO 08004KT 10SM CLR 11/10 A3003 RMK AO2 SLP175 T01110100 10128 20106 50002
KACV 101053Z AUTO 08004KT 10SM CLR 12/11 A3004 RMK AO2 SLP175 T01170106
KACV 100953Z AUTO 07003KT 10SM CLR 11/11 A3003 RMK AO2 SLP174 T01110106
KACV 100853Z AUTO 00000KT 10SM CLR 12/11 A3003 RMK AO2 SLP172 T01170106 50001
KACV 100753Z AUTO 00000KT 10SM CLR 12/11 A3003 RMK AO2 SLP174 T01170106 401940111
KACV 100653Z AUTO 09003KT 10SM CLR 12/11 A3002 RMK AO2 SLP171 T01170106
KACV 100553Z AUTO 00000KT 10SM CLR 13/11 A3002 RMK AO2 SLP172 T01280111 10189 20122 53007
KACV 100453Z AUTO 00000KT 10SM CLR 14/12 A3002 RMK AO2 SLP169 T01390117
KACV 100353Z AUTO 00000KT 10SM CLR 14/12 A3000 RMK AO2 SLP165 T01440117
KACV 100253Z AUTO 00000KT 10SM CLR 18/12 A3000 RMK AO2 SLP164 T01780122 58002
KACV 100153Z AUTO 00000KT 10SM CLR 18/12 A3001 RMK AO2 SLP167 T01830122
KACV 100053Z AUTO 26006KT 10SM SCT045 18/13 A3002 RMK AO2 SLP170 T01830128
KACV 092353Z AUTO VRB04KT 10SM CLR 18/12 A3001 RMK AO2 SLP167 T01830122 10194 20150 53002
KACV 092253Z AUTO VRB05KT 10SM CLR 18/13 A3001 RMK AO2 SLP166 T01780128
KACV 092210Z AUTO 26007KT 10SM FEW021 18/13 A3001 RMK AO2 T01830128
KACV 092153Z AUTO 28006KT 10SM BKN019 19/13 A3000 RMK AO2 SLP164 T01890128
KACV 092053Z AUTO 30005KT 10SM OVC021 17/13 A3001 RMK AO2 SLP165 T01720128 50002
KACV 092012Z AUTO 30003KT 10SM SCT012 OVC019 17/13 A3001 RMK AO2 T01670128
KACV 091953Z AUTO 00000KT 10SM BKN012 OVC017 16/13 A3001 RMK AO2 SLP166 T01610128
KACV 091853Z AUTO 30004KT 10SM OVC012 16/13 A3000 RMK AO2 SLP164 T01560128
KACV 091753Z AUTO 31005KT 10SM OVC011 16/13 A3000 RMK AO2 SLP163 T01560133 10156 20133 58001
KACV 091653Z AUTO 29003KT 6SM BR SCT006 OVC014 15/13 A3000 RMK AO2 SLP164 T01500133
KACV 091649Z AUTO 00000KT 7SM SCT006 OVC014 15/13 A3000 RMK AO2
KACV 091639Z AUTO 29004KT 10SM BKN006 OVC014 15/13 A3000 RMK AO2 T01500133
KACV 091602Z AUTO 00000KT 5SM BR SCT006 OVC014 15/13 A3000 RMK AO2 T01500133
KACV 091553Z AUTO 00000KT 6SM BR BKN005 OVC014 15/13 A3000 RMK AO2 CIG 004V008 SLP164 T01500133
KACV 091531Z AUTO 00000KT 9SM BKN005 OVC014 14/13 A3000 RMK AO2 CIG 004V008 T01440133
KACV 091519Z AUTO 00000KT 10SM FEW005 OVC014 15/13 A2999 RMK AO2 T01500133
KACV 091453Z AUTO 00000KT 10SM OVC014 14/13 A2999 RMK AO2 SLP161 T01440128 53006
KACV 091443Z AUTO 00000KT 10SM FEW009 OVC014 14/13 A2999 RMK AO2 T01440133
KACV 091420Z AUTO 00000KT 10SM BKN010 OVC014 14/13 A2999 RMK AO2 T01390128
KACV 091353Z AUTO 00000KT 10SM OVC009 14/13 A2999 RMK AO2 SLP159 T01390128
KACV 091326Z AUTO 00000KT 10SM OVC008 14/12 A2998 RMK AO2 T01390122
KACV 091253Z AUTO 00000KT 10SM OVC011 13/12 A2998 RMK AO2 SLP156 T01330122
KACV 091153Z AUTO 00000KT 10SM OVC011 13/12 A2998 RMK AO2 SLP155 T01330122 10133 20111 57002
KACV 091053Z AUTO 08003KT 10SM OVC013 12/12 A2998 RMK AO2 SLP157 T01220117
KACV 091010Z AUTO 08004KT 10SM BKN012 12/11 A2997 RMK AO2 T01170106
KACV 090953Z AUTO 08003KT 10SM FEW013 11/11 A2998 RMK AO2 SLP155 T01110106
KACV 090853Z AUTO 00000KT 10SM CLR 12/11 A2998 RMK AO2 SLP157 T01170106 58006
KACV 090753Z AUTO 00000KT 10SM CLR 12/11 A2999 RMK AO2 SLP161 T01170106 402110117
KACV 090653Z AUTO 00000KT 10SM CLR 12/11 A3000 RMK AO2 SLP162 T01220111
KACV 090553Z AUTO 06003KT 10SM CLR 13/12 A3000 RMK AO2 SLP163 T01330117 10200 20128 50004
KACV 090453Z AUTO 00000KT 10SM CLR 14/12 A3000 RMK AO2 SLP164 T01390122
KACV 090353Z AUTO 33006KT 10SM CLR 16/12 A3000 RMK AO2 SLP162 T01560122
KACV 090253Z AUTO 32008KT 10SM CLR 17/12 A2999 RMK AO2 SLP159 T01720122 56010